createdAt,value
2023-03-12T00:02:23.243Z,24.80
2023-03-12T00:04:50.389Z,22.55
2023-03-12T00:07:17.464Z,16.02
2023-03-12T00:09:45.704Z,25.85
2023-03-12T00:12:12.801Z,20.10
2023-03-12T00:14:39.861Z,30.10
2023-03-12T00:17:06.874Z,21.90
2023-03-12T00:19:33.891Z,27.67
2023-03-12T00:22:00.938Z,22.17
2023-03-12T00:24:28.022Z,17.40
2023-03-12T00:26:55.016Z,18.77
2023-03-12T00:29:22.160Z,24.33
2023-03-12T00:31:51.386Z,21.67
2023-03-12T00:34:18.397Z,22.30
2023-03-12T00:36:45.531Z,20.17
2023-03-12T00:39:12.593Z,19.40
2023-03-12T00:41:39.653Z,16.88
2023-03-12T00:44:06.791Z,16.33
2023-03-12T00:46:33.836Z,17.85
2023-03-12T00:49:00.868Z,19.58
2023-03-12T00:51:27.933Z,17.98
2023-03-12T00:53:55.933Z,15.52
2023-03-12T00:56:22.969Z,15.10
2023-03-12T00:58:50.026Z,13.52
2023-03-12T01:01:17.181Z,15.40
2023-03-12T01:03:44.413Z,15.43
2023-03-12T01:06:11.435Z,15.15
2023-03-12T01:08:38.537Z,15.50
2023-03-12T01:11:05.679Z,15.13
2023-03-12T01:13:32.699Z,12.65
2023-03-12T01:15:59.758Z,16.38
2023-03-12T01:18:26.806Z,17.35
2023-03-12T01:20:53.817Z,12.65
2023-03-12T01:23:20.848Z,16.15
2023-03-12T01:25:47.848Z,13.73
2023-03-12T01:28:14.868Z,11.98
2023-03-12T01:30:41.928Z,19.52
2023-03-12T01:33:08.994Z,18.85
2023-03-12T01:35:37.155Z,13.00
2023-03-12T01:38:04.211Z,14.48
2023-03-12T01:40:31.218Z,14.05
2023-03-12T01:42:58.547Z,16.55
2023-03-12T01:45:44.396Z,15.70
2023-03-12T01:48:11.545Z,14.55
2023-03-12T01:50:38.913Z,16.05
2023-03-12T01:53:05.995Z,12.48
2023-03-12T01:55:32.986Z,13.95
2023-03-12T01:57:59.994Z,13.85
2023-03-12T02:00:27.237Z,14.20
2023-03-12T02:02:56.186Z,14.77
2023-03-12T02:05:25.369Z,15.95
2023-03-12T02:07:52.569Z,14.60
2023-03-12T02:10:19.615Z,13.82
2023-03-12T02:12:46.601Z,13.45
2023-03-12T02:15:13.676Z,14.30
2023-03-12T02:17:40.888Z,15.23
2023-03-12T02:20:23.199Z,15.65
2023-03-12T02:22:52.203Z,16.48
2023-03-12T02:25:22.293Z,15.43
2023-03-12T02:27:49.477Z,16.27
2023-03-12T02:30:16.690Z,12.93
2023-03-12T02:32:43.732Z,13.75
2023-03-12T02:35:10.723Z,15.65
2023-03-12T02:37:47.240Z,15.02
2023-03-12T02:40:16.057Z,16.35
2023-03-12T02:42:43.077Z,15.57
2023-03-12T02:45:10.278Z,14.90
2023-03-12T02:47:37.273Z,14.05
2023-03-12T02:50:04.499Z,16.00
2023-03-12T02:52:35.554Z,15.77
2023-03-12T02:55:02.775Z,12.40
2023-03-12T02:57:29.772Z,13.20
2023-03-12T02:59:56.829Z,18.80
2023-03-12T03:02:24.278Z,22.35
2023-03-12T03:04:51.390Z,14.77
2023-03-12T03:07:18.464Z,15.25
2023-03-12T03:09:45.487Z,17.95
2023-03-12T03:12:12.489Z,16.02
2023-03-12T03:14:39.579Z,19.10
2023-03-12T03:17:06.606Z,15.82
2023-03-12T03:19:33.798Z,15.23
2023-03-12T03:22:00.793Z,17.13
2023-03-12T03:24:27.970Z,17.63
2023-03-12T03:26:54.957Z,18.17
2023-03-12T03:29:21.944Z,13.98
2023-03-12T03:31:48.987Z,16.77
2023-03-12T03:34:16.016Z,19.88
2023-03-12T03:36:43.075Z,13.43
2023-03-12T03:39:10.073Z,15.20
2023-03-12T03:41:37.360Z,16.38
2023-03-12T03:44:05.352Z,16.70
2023-03-12T03:46:32.494Z,20.77
2023-03-12T03:48:59.545Z,18.23
2023-03-12T03:51:26.539Z,16.25
2023-03-12T03:53:53.568Z,15.10
2023-03-12T03:56:20.717Z,16.08
2023-03-12T03:58:47.784Z,14.25
2023-03-12T04:01:14.868Z,16.58
2023-03-12T04:03:41.942Z,12.00
2023-03-12T04:06:09.002Z,17.20
2023-03-12T04:08:37.044Z,20.35
2023-03-12T04:11:08.647Z,12.80
2023-03-12T04:13:35.673Z,16.40
2023-03-12T04:16:02.782Z,18.00
2023-03-12T04:18:29.789Z,18.60
2023-03-12T04:20:56.777Z,13.90
2023-03-12T04:23:23.813Z,18.00
2023-03-12T04:25:50.830Z,15.25
2023-03-12T04:28:17.900Z,19.23
2023-03-12T04:30:44.926Z,15.13
2023-03-12T04:33:11.944Z,16.88
2023-03-12T04:35:38.993Z,23.02
2023-03-12T04:38:06.053Z,21.05
2023-03-12T04:40:33.021Z,17.13
2023-03-12T04:43:00.003Z,17.50
2023-03-12T04:45:26.983Z,17.77
2023-03-12T04:47:54.059Z,15.43
2023-03-12T04:50:21.193Z,13.60
2023-03-12T04:52:48.306Z,15.27
2023-03-12T04:55:15.349Z,14.23
2023-03-12T04:57:42.340Z,19.17
2023-03-12T05:00:13.261Z,18.52
2023-03-12T05:02:40.869Z,18.92
2023-03-12T05:05:08.248Z,20.23
2023-03-12T05:07:35.309Z,15.07
2023-03-12T05:10:02.405Z,18.23
2023-03-12T05:12:29.412Z,16.88
2023-03-12T05:14:56.400Z,15.95
2023-03-12T05:17:23.778Z,21.48
2023-03-12T05:19:50.786Z,16.65
2023-03-12T05:22:18.046Z,18.48
2023-03-12T05:24:45.130Z,14.32
2023-03-12T05:27:12.256Z,12.55
2023-03-12T05:29:39.282Z,16.83
2023-03-12T05:32:07.514Z,12.90
2023-03-12T05:34:34.558Z,15.32
2023-03-12T05:37:01.618Z,12.80
2023-03-12T05:39:28.802Z,17.30
2023-03-12T05:41:57.145Z,12.25
2023-03-12T05:44:24.857Z,11.68
2023-03-12T05:46:52.338Z,13.38
2023-03-12T05:49:19.549Z,13.40
2023-03-12T05:51:49.487Z,16.90
2023-03-12T05:54:16.887Z,15.23
2023-03-12T05:56:43.993Z,14.82
2023-03-12T05:59:10.979Z,14.23
2023-03-12T06:01:38.026Z,13.70
2023-03-12T06:04:05.117Z,13.32
2023-03-12T06:06:32.654Z,14.55
2023-03-12T06:08:59.841Z,15.50
2023-03-12T06:11:26.958Z,11.95
2023-03-12T06:13:53.974Z,16.48
2023-03-12T06:16:24.998Z,11.82
2023-03-12T06:18:55.686Z,15.43
2023-03-12T06:21:23.668Z,10.93
2023-03-12T06:23:50.929Z,14.55
2023-03-12T06:26:18.065Z,12.40
2023-03-12T06:28:45.733Z,16.10
2023-03-12T06:31:12.804Z,10.55
2023-03-12T06:33:39.847Z,12.77
2023-03-12T06:36:07.360Z,10.82
2023-03-12T06:38:34.526Z,9.30
2023-03-12T06:41:05.498Z,12.43
2023-03-12T06:43:33.010Z,8.60
2023-03-12T06:46:00.262Z,13.75
2023-03-12T06:48:27.505Z,13.10
2023-03-12T06:50:54.564Z,15.63
2023-03-12T06:53:21.683Z,8.07
2023-03-12T06:55:49.934Z,14.75
2023-03-12T06:58:16.936Z,11.73
2023-03-12T07:00:43.969Z,8.57
2023-03-12T07:03:11.036Z,12.40
2023-03-12T07:05:38.075Z,10.27
2023-03-12T07:08:05.362Z,10.98
2023-03-12T07:10:32.359Z,9.40
2023-03-12T07:12:59.332Z,10.73
2023-03-12T07:15:26.301Z,7.63
2023-03-12T07:17:53.410Z,8.88
2023-03-12T07:20:20.529Z,8.68
2023-03-12T07:22:47.606Z,16.50
2023-03-12T07:25:14.635Z,12.48
2023-03-12T07:27:41.661Z,7.05
2023-03-12T07:30:08.909Z,10.90
2023-03-12T07:32:36.754Z,7.03
2023-03-12T07:35:04.733Z,7.82
2023-03-12T07:37:31.858Z,8.98
2023-03-12T07:39:58.968Z,10.52
2023-03-12T07:42:26.021Z,7.28
2023-03-12T07:44:53.048Z,8.65
2023-03-12T07:47:24.040Z,6.32
2023-03-12T07:49:51.706Z,8.93
2023-03-12T07:52:20.157Z,7.65
2023-03-12T07:54:47.944Z,10.18
2023-03-12T07:57:15.140Z,7.95
2023-03-12T07:59:42.268Z,10.10
2023-03-12T08:02:10.380Z,9.88
2023-03-12T08:04:37.501Z,11.57
2023-03-12T08:07:06.902Z,12.38
2023-03-12T08:09:35.012Z,9.90
2023-03-12T08:12:02.068Z,11.10
2023-03-12T08:14:31.577Z,13.52
2023-03-12T08:16:58.930Z,19.63
2023-03-12T08:19:26.732Z,16.75
2023-03-12T08:21:53.910Z,22.77
2023-03-12T08:24:21.193Z,12.63
2023-03-12T08:26:48.259Z,22.50
2023-03-12T08:29:15.527Z,14.82
2023-03-12T08:31:57.447Z,16.90
2023-03-12T08:34:28.774Z,12.48
2023-03-12T08:36:56.443Z,11.20
2023-03-12T08:39:23.476Z,18.67
2023-03-12T08:41:55.141Z,13.30
2023-03-12T08:44:22.706Z,16.88
2023-03-12T08:46:49.830Z,16.42
2023-03-12T08:51:36.739Z,19.33
2023-03-12T08:54:05.238Z,14.93
2023-03-12T08:56:32.710Z,15.18
2023-03-12T08:58:59.739Z,17.10
2023-03-12T09:01:26.808Z,11.85
2023-03-12T09:03:55.246Z,12.18
2023-03-12T09:06:22.449Z,13.73
2023-03-12T09:08:51.566Z,11.52
2023-03-12T09:11:18.727Z,11.05
2023-03-12T09:14:09.984Z,10.35
2023-03-12T09:16:32.982Z,19.17
2023-03-12T09:19:00.140Z,11.07
2023-03-12T09:21:27.412Z,13.52
2023-03-12T09:23:54.483Z,10.82
2023-03-12T09:26:21.520Z,16.00
2023-03-12T09:28:48.638Z,18.58
2023-03-12T09:31:15.754Z,15.73
2023-03-12T09:33:42.927Z,10.13
2023-03-12T09:36:10.207Z,16.55
2023-03-12T09:38:37.906Z,19.90
2023-03-12T09:41:05.570Z,11.98
2023-03-12T09:43:32.610Z,13.68
2023-03-12T09:45:59.699Z,16.58
2023-03-12T09:48:33.305Z,16.73
2023-03-12T09:51:04.731Z,15.70
2023-03-12T09:53:41.727Z,15.48
2023-03-12T09:56:11.173Z,17.52
2023-03-12T09:58:38.398Z,19.58
2023-03-12T10:01:23.701Z,24.33
2023-03-12T10:04:08.988Z,16.92
2023-03-12T10:06:37.250Z,15.20
2023-03-12T10:09:17.843Z,14.43
2023-03-12T10:14:24.531Z,25.58
2023-03-12T10:16:54.732Z,23.73
2023-03-12T10:19:24.806Z,20.02
2023-03-12T10:22:10.619Z,19.23
2023-03-12T10:24:40.919Z,21.48
2023-03-12T10:27:11.847Z,29.92
2023-03-12T10:29:42.051Z,27.83
2023-03-12T10:32:17.871Z,30.52
2023-03-12T10:34:46.625Z,25.50
2023-03-12T10:37:18.393Z,31.60
2023-03-12T10:39:45.585Z,31.25
2023-03-12T10:42:13.536Z,31.23
2023-03-12T10:44:40.579Z,34.80
2023-03-12T10:47:08.833Z,33.60
2023-03-12T10:49:39.016Z,34.92
2023-03-12T10:52:07.121Z,35.30
2023-03-12T10:54:40.910Z,39.25
2023-03-12T10:57:08.367Z,37.40
2023-03-12T10:59:36.222Z,36.20
2023-03-12T11:02:03.761Z,39.78
2023-03-12T11:04:32.029Z,41.05
2023-03-12T11:07:05.176Z,40.20
2023-03-12T11:09:32.238Z,39.67
2023-03-12T11:11:59.335Z,41.90
2023-03-12T11:14:30.061Z,39.95
2023-03-12T11:16:57.235Z,40.78
2023-03-12T11:19:28.585Z,43.65
2023-03-12T11:21:59.805Z,43.90
2023-03-12T11:24:26.867Z,44.75
2023-03-12T11:27:06.027Z,53.38
2023-03-12T11:29:39.964Z,45.13
2023-03-12T11:32:07.231Z,44.75
2023-03-12T11:34:35.054Z,42.03
2023-03-12T11:37:14.020Z,48.88
2023-03-12T11:39:56.182Z,46.20
2023-03-12T11:42:38.435Z,47.38
2023-03-12T11:45:07.053Z,41.95
2023-03-12T11:47:42.591Z,44.42
2023-03-12T11:50:09.635Z,45.08
2023-03-12T11:52:56.357Z,48.05
2023-03-12T11:55:28.394Z,48.92
2023-03-12T11:58:10.743Z,50.03
2023-03-12T12:00:40.162Z,43.30
2023-03-12T12:03:16.372Z,48.80
2023-03-12T12:05:49.741Z,48.88
2023-03-12T12:08:23.442Z,49.72
2023-03-12T12:10:53.497Z,49.30
2023-03-12T12:13:26.603Z,51.92
2023-03-12T12:16:12.333Z,52.40
2023-03-12T12:18:42.481Z,46.22
2023-03-12T12:21:14.993Z,50.97
2023-03-12T12:23:48.689Z,51.83
2023-03-12T12:26:37.904Z,51.85
2023-03-12T12:29:14.238Z,58.67
2023-03-12T12:31:44.536Z,57.17
2023-03-12T12:34:20.785Z,59.50
2023-03-12T12:36:50.121Z,56.75
2023-03-12T12:39:23.375Z,56.75
2023-03-12T12:41:53.856Z,54.55
2023-03-12T12:44:22.303Z,56.25
2023-03-12T12:46:50.614Z,57.25
2023-03-12T12:49:37.199Z,60.78
2023-03-12T12:52:06.005Z,53.15
2023-03-12T12:54:36.204Z,55.47
2023-03-12T12:57:07.936Z,58.60
2023-03-12T12:59:36.841Z,54.85
2023-03-12T13:02:04.174Z,55.03
2023-03-12T13:04:32.844Z,58.00
2023-03-12T13:07:01.832Z,55.65
2023-03-12T13:09:38.174Z,52.15
2023-03-12T13:12:12.342Z,49.30
2023-03-12T13:14:40.288Z,47.85
2023-03-12T13:17:08.631Z,43.92
2023-03-12T13:19:40.553Z,44.45
2023-03-12T13:22:26.445Z,46.45
2023-03-12T13:24:59.605Z,48.65
2023-03-12T13:27:30.173Z,42.55
2023-03-12T13:32:36.390Z,45.22
2023-03-12T13:35:12.350Z,45.88
2023-03-12T13:37:48.889Z,41.90
2023-03-12T13:40:31.373Z,38.25
2023-03-12T13:43:11.696Z,38.17
2023-03-12T13:45:48.384Z,43.10
2023-03-12T13:48:16.344Z,41.47
2023-03-12T13:50:48.193Z,38.47
2023-03-12T13:53:17.125Z,38.03
2023-03-12T13:55:44.252Z,38.83
2023-03-12T13:58:21.589Z,38.45
2023-03-12T14:00:48.734Z,39.25
2023-03-12T14:03:18.842Z,34.60
2023-03-12T14:06:07.689Z,39.63
2023-03-12T14:08:37.910Z,39.78
2023-03-12T14:11:34.157Z,44.00
2023-03-12T14:14:04.336Z,37.53
2023-03-12T14:16:33.829Z,36.15
2023-03-12T14:19:00.914Z,34.60
2023-03-12T14:21:29.379Z,32.25
2023-03-12T14:23:57.336Z,32.42
2023-03-12T14:26:28.443Z,28.92
2023-03-12T14:28:56.858Z,31.30
2023-03-12T14:31:24.503Z,32.15
2023-03-12T14:33:59.379Z,33.70
2023-03-12T14:36:27.641Z,31.88
2023-03-12T14:38:59.363Z,35.00
2023-03-12T14:41:29.291Z,30.00
2023-03-12T14:43:58.297Z,36.30
2023-03-12T14:46:25.507Z,27.55
2023-03-12T14:48:53.396Z,28.23
2023-03-12T14:51:24.306Z,29.38
2023-03-12T14:53:51.592Z,36.53
2023-03-12T14:56:24.095Z,29.35
2023-03-12T14:58:51.363Z,33.92
2023-03-12T15:01:19.336Z,33.53
2023-03-12T15:03:53.536Z,34.60
2023-03-12T15:06:39.385Z,38.75
2023-03-12T15:09:07.229Z,33.28
2023-03-12T15:11:35.036Z,29.25
2023-03-12T15:14:03.234Z,28.67
2023-03-12T15:16:30.297Z,36.05
2023-03-12T15:18:57.343Z,34.15
2023-03-12T15:21:24.363Z,29.55
2023-03-12T15:23:51.518Z,30.58
2023-03-12T15:26:18.700Z,32.08
2023-03-12T15:28:55.470Z,35.17
2023-03-12T15:31:22.639Z,30.95
2023-03-12T15:34:00.620Z,30.75
2023-03-12T15:36:28.165Z,32.38
2023-03-12T15:39:01.115Z,30.67
2023-03-12T15:41:36.768Z,30.05
2023-03-12T15:44:03.841Z,25.02
2023-03-12T15:46:31.028Z,29.00
2023-03-12T15:48:58.882Z,27.08
2023-03-12T15:51:30.430Z,29.90
2023-03-12T15:54:01.369Z,31.92
2023-03-12T15:56:28.492Z,35.15
2023-03-12T15:59:15.767Z,35.45
2023-03-12T16:01:46.527Z,33.25
2023-03-12T16:04:13.764Z,36.35
2023-03-12T16:06:42.908Z,34.95
2023-03-12T16:09:10.329Z,34.72
2023-03-12T16:11:37.412Z,41.60
2023-03-12T16:14:05.779Z,37.83
2023-03-12T16:16:32.902Z,28.60
2023-03-12T16:19:00.071Z,37.40
2023-03-12T16:21:27.270Z,36.70
2023-03-12T16:23:54.381Z,36.17
2023-03-12T16:26:22.487Z,35.85
2023-03-12T16:28:49.615Z,42.10
2023-03-12T16:31:16.907Z,32.88
2023-03-12T16:33:44.810Z,33.05
2023-03-12T16:36:15.828Z,29.58
2023-03-12T16:38:46.221Z,35.35
2023-03-12T16:41:14.174Z,37.13
2023-03-12T16:43:41.404Z,41.10
2023-03-12T16:46:09.509Z,43.88
2023-03-12T16:48:36.759Z,43.28
2023-03-12T16:51:04.283Z,52.10
2023-03-12T16:53:31.650Z,40.72
2023-03-12T16:55:59.894Z,40.38
2023-03-12T16:58:27.250Z,34.70
2023-03-12T17:00:54.704Z,29.38
2023-03-12T17:03:24.814Z,30.02
2023-03-12T17:05:52.301Z,33.70
2023-03-12T17:08:19.370Z,36.30
2023-03-12T17:10:46.603Z,37.00
2023-03-12T17:13:16.644Z,55.35
2023-03-12T17:15:43.705Z,35.00
2023-03-12T17:18:13.629Z,33.38
2023-03-12T17:20:40.758Z,31.35
2023-03-12T17:23:08.117Z,29.60
2023-03-12T17:25:35.785Z,32.80
2023-03-12T17:28:02.876Z,34.70
2023-03-12T17:30:30.144Z,35.13
2023-03-12T17:33:04.488Z,47.17
2023-03-12T17:35:31.735Z,48.30
2023-03-12T17:37:59.002Z,27.73
2023-03-12T17:40:26.720Z,24.13
2023-03-12T17:42:53.966Z,26.38
2023-03-12T17:45:21.114Z,25.95
2023-03-12T17:47:48.345Z,25.05
2023-03-12T17:50:15.432Z,23.02
2023-03-12T17:52:42.507Z,24.27
2023-03-12T17:55:11.629Z,23.73
2023-03-12T17:57:39.061Z,59.58
2023-03-12T18:00:12.950Z,30.17
2023-03-12T18:02:40.696Z,28.67
2023-03-12T18:05:08.353Z,30.63
2023-03-12T18:07:35.489Z,25.27
2023-03-12T18:10:02.574Z,27.08
2023-03-12T18:12:29.615Z,23.70
2023-03-12T18:14:56.651Z,27.42
2023-03-12T18:17:23.686Z,24.40
2023-03-12T18:19:50.778Z,27.58
2023-03-12T18:22:19.682Z,27.23
2023-03-12T18:24:46.852Z,28.73
2023-03-12T18:27:13.943Z,28.63
2023-03-12T18:29:41.263Z,23.08
2023-03-12T18:32:08.451Z,29.20
2023-03-12T18:34:35.788Z,23.30
2023-03-12T18:37:02.889Z,25.60
2023-03-12T18:39:29.905Z,27.27
2023-03-12T18:41:57.019Z,23.77
2023-03-12T18:44:24.048Z,29.30
2023-03-12T18:46:51.808Z,31.95
2023-03-12T18:49:19.081Z,27.17
2023-03-12T18:51:46.310Z,28.10
2023-03-12T18:54:13.393Z,27.13
2023-03-12T18:56:40.978Z,27.80
2023-03-12T18:59:09.834Z,28.85
2023-03-12T19:01:37.112Z,27.45
2023-03-12T19:04:04.345Z,25.35
2023-03-12T19:06:47.866Z,25.70
2023-03-12T19:09:17.348Z,30.45
2023-03-12T19:11:44.373Z,30.63
2023-03-12T19:14:12.278Z,26.23
2023-03-12T19:16:39.491Z,22.42
2023-03-12T19:19:06.540Z,29.80
2023-03-12T19:21:33.567Z,29.88
2023-03-12T19:24:00.635Z,29.67
2023-03-12T19:26:27.674Z,26.45
2023-03-12T19:28:54.683Z,28.23
2023-03-12T19:31:21.830Z,30.52
2023-03-12T19:33:48.879Z,23.30
2023-03-12T19:36:15.982Z,29.05
2023-03-12T19:38:43.058Z,23.88
2023-03-12T19:41:10.278Z,29.33
2023-03-12T19:43:37.613Z,30.42
2023-03-12T19:46:04.952Z,20.50
2023-03-12T19:48:32.171Z,23.75
2023-03-12T19:51:04.964Z,33.53
2023-03-12T19:53:32.001Z,32.83
2023-03-12T19:55:59.002Z,25.88
2023-03-12T19:58:26.057Z,24.55
2023-03-12T20:00:53.177Z,25.08
2023-03-12T20:03:20.815Z,25.90
2023-03-12T20:05:48.030Z,23.50
2023-03-12T20:08:15.216Z,29.90
2023-03-12T20:10:42.276Z,27.63
2023-03-12T20:13:12.904Z,27.00
2023-03-12T20:15:40.357Z,25.33
2023-03-12T20:18:07.438Z,20.63
2023-03-12T20:20:34.533Z,26.40
2023-03-12T20:23:01.647Z,30.08
2023-03-12T20:25:28.720Z,30.33
2023-03-12T20:27:55.754Z,19.38
2023-03-12T20:30:22.930Z,24.30
2023-03-12T20:32:50.080Z,23.90
2023-03-12T20:35:17.211Z,27.38
2023-03-12T20:37:44.225Z,41.50
2023-03-12T20:40:13.276Z,25.15
2023-03-12T20:42:41.548Z,28.20
2023-03-12T20:45:08.919Z,29.63
2023-03-12T20:47:37.599Z,36.00
2023-03-12T20:50:04.764Z,23.38
2023-03-12T20:52:31.846Z,22.98
2023-03-12T20:54:58.983Z,44.38
2023-03-12T20:57:26.004Z,28.08
2023-03-12T20:59:53.062Z,23.83
2023-03-12T21:02:20.139Z,25.92
2023-03-12T21:04:49.299Z,32.38
2023-03-12T21:07:16.316Z,25.48
2023-03-12T21:09:43.351Z,28.63
2023-03-12T21:12:10.350Z,26.15
2023-03-12T21:14:39.718Z,27.92
2023-03-12T21:17:06.798Z,19.98
2023-03-12T21:19:33.883Z,22.55
2023-03-12T21:22:00.962Z,17.67
2023-03-12T21:24:28.063Z,34.67
2023-03-12T21:26:55.158Z,22.98
2023-03-12T21:29:22.248Z,25.13
2023-03-12T21:31:51.743Z,23.88
2023-03-12T21:34:18.736Z,25.63
2023-03-12T21:36:46.297Z,23.77
2023-03-12T21:39:13.576Z,24.67
2023-03-12T21:41:40.604Z,27.55
2023-03-12T21:44:07.623Z,24.83
2023-03-12T21:46:34.933Z,25.30
2023-03-12T21:49:02.078Z,25.25
2023-03-12T21:51:29.200Z,23.48
2023-03-12T21:53:56.472Z,27.15
2023-03-12T21:56:26.383Z,25.55
2023-03-12T21:58:53.454Z,25.73
2023-03-12T22:01:20.567Z,23.00
2023-03-12T22:03:47.837Z,26.90
2023-03-12T22:06:15.242Z,26.52
2023-03-12T22:08:42.373Z,26.45
2023-03-12T22:11:09.586Z,32.88
2023-03-12T22:13:36.636Z,28.55
2023-03-12T22:16:05.968Z,25.92
2023-03-12T22:18:33.253Z,27.50
2023-03-12T22:21:01.602Z,23.58
2023-03-12T22:23:28.703Z,24.85
2023-03-12T22:25:55.931Z,26.58
2023-03-12T22:28:25.703Z,24.27
2023-03-12T22:30:57.391Z,23.92
2023-03-12T22:33:24.577Z,24.30
2023-03-12T22:35:51.654Z,53.65
2023-03-12T22:38:18.843Z,32.13
2023-03-12T22:40:45.894Z,20.35
2023-03-12T22:43:12.985Z,27.65
2023-03-12T22:45:40.034Z,30.75
2023-03-12T22:48:07.622Z,24.70
2023-03-12T22:50:34.644Z,23.92
2023-03-12T22:53:01.676Z,28.38
2023-03-12T22:55:28.717Z,22.10
2023-03-12T22:57:55.748Z,30.45
2023-03-12T23:00:23.053Z,21.35
2023-03-12T23:02:50.569Z,32.30
2023-03-12T23:05:17.738Z,31.05
2023-03-12T23:07:44.881Z,25.52
2023-03-12T23:10:12.278Z,31.10
2023-03-12T23:12:39.320Z,25.05
2023-03-12T23:15:06.825Z,25.98
2023-03-12T23:17:33.945Z,31.40
2023-03-12T23:20:01.047Z,28.50
2023-03-12T23:22:28.136Z,31.02
2023-03-12T23:24:55.240Z,35.60
2023-03-12T23:27:22.365Z,25.10
2023-03-12T23:29:49.618Z,32.78
2023-03-12T23:32:16.935Z,29.30
2023-03-12T23:34:44.047Z,35.85
2023-03-12T23:37:11.858Z,29.55
2023-03-12T23:39:53.398Z,26.60
2023-03-12T23:42:21.720Z,28.33
2023-03-12T23:44:48.797Z,29.15
2023-03-12T23:47:15.806Z,27.63
2023-03-12T23:49:42.905Z,27.10
2023-03-12T23:52:09.981Z,26.67
2023-03-12T23:54:37.020Z,25.52
2023-03-12T23:57:04.108Z,19.52
2023-03-12T23:59:31.190Z,21.45
